createdAt,value
2023-04-24T00:01:11.654Z,91.40
2023-04-24T00:03:40.126Z,91.55
2023-04-24T00:06:11.538Z,91.82
2023-04-24T00:08:39.830Z,91.89
2023-04-24T00:11:11.130Z,91.97
2023-04-24T00:13:39.864Z,92.13
2023-04-24T00:16:08.266Z,92.18
2023-04-24T00:18:36.636Z,92.42
2023-04-24T00:21:05.865Z,92.65
2023-04-24T00:23:34.342Z,92.63
2023-04-24T00:26:03.121Z,92.75
2023-04-24T00:28:31.618Z,92.87
2023-04-24T00:30:59.979Z,93.07
2023-04-24T00:33:28.370Z,93.20
2023-04-24T00:35:57.114Z,93.32
2023-04-24T00:38:25.527Z,93.38
2023-04-24T00:40:55.146Z,93.43
2023-04-24T00:43:23.608Z,93.53
2023-04-24T00:45:52.122Z,93.63
2023-04-24T00:48:21.549Z,93.64
2023-04-24T00:50:49.852Z,93.75
2023-04-24T00:53:18.179Z,93.62
2023-04-24T00:55:46.825Z,93.72
2023-04-24T00:58:15.851Z,93.68
2023-04-24T01:00:45.054Z,93.76
2023-04-24T01:03:14.389Z,93.77
2023-04-24T01:05:43.503Z,93.69
2023-04-24T01:08:12.647Z,93.78
2023-04-24T01:10:41.938Z,93.82
2023-04-24T01:13:10.338Z,93.84
2023-04-24T01:15:39.184Z,93.75
2023-04-24T01:18:07.673Z,93.94
2023-04-24T01:20:37.716Z,94.03
2023-04-24T01:23:06.552Z,94.02
2023-04-24T01:25:35.923Z,94.03
2023-04-24T01:28:04.982Z,93.94
2023-04-24T01:30:34.822Z,94.03
2023-04-24T01:33:03.774Z,94.00
2023-04-24T01:35:32.448Z,93.91
2023-04-24T01:38:00.818Z,93.90
2023-04-24T01:40:29.209Z,93.91
2023-04-24T01:42:59.619Z,94.01
2023-04-24T01:45:27.996Z,93.96
2023-04-24T01:47:56.666Z,93.99
2023-04-24T01:50:25.224Z,94.06
2023-04-24T01:52:53.601Z,94.05
2023-04-24T01:55:22.092Z,94.20
2023-04-24T01:57:51.218Z,94.18
2023-04-24T02:00:19.657Z,94.45
2023-04-24T02:02:48.571Z,94.53
2023-04-24T02:05:17.534Z,94.74
2023-04-24T02:07:45.914Z,94.53
2023-04-24T02:10:14.589Z,94.53
2023-04-24T02:12:43.093Z,94.51
2023-04-24T02:15:14.609Z,94.35
2023-04-24T02:17:42.997Z,94.40
2023-04-24T02:20:11.643Z,94.65
2023-04-24T02:22:40.078Z,94.64
2023-04-24T02:25:09.455Z,94.66
2023-04-24T02:27:37.839Z,94.72
2023-04-24T02:30:08.497Z,94.93
2023-04-24T02:32:37.332Z,95.15
2023-04-24T02:35:07.009Z,95.20
2023-04-24T02:37:35.371Z,95.15
2023-04-24T02:40:04.390Z,95.11
2023-04-24T02:42:32.747Z,95.09
2023-04-24T02:45:01.189Z,95.20
2023-04-24T02:47:29.509Z,95.24
2023-04-24T02:49:57.838Z,95.34
2023-04-24T02:52:26.211Z,95.35
2023-04-24T02:54:55.327Z,95.21
2023-04-24T02:57:23.693Z,95.42
2023-04-24T02:59:52.096Z,95.58
2023-04-24T03:02:21.767Z,95.53
2023-04-24T03:04:50.385Z,95.49
2023-04-24T03:07:21.838Z,95.53
2023-04-24T03:09:50.232Z,95.71
2023-04-24T03:12:21.165Z,95.71
2023-04-24T03:14:49.487Z,95.76
2023-04-24T03:17:17.857Z,95.86
2023-04-24T03:19:46.230Z,95.84
2023-04-24T03:22:14.621Z,96.01
2023-04-24T03:24:43.168Z,96.03
2023-04-24T03:27:11.689Z,96.25
2023-04-24T03:29:40.261Z,96.10
2023-04-24T03:32:08.912Z,96.10
2023-04-24T03:34:37.424Z,95.96
2023-04-24T03:37:05.755Z,95.97
2023-04-24T03:39:34.090Z,95.96
2023-04-24T03:42:02.814Z,95.88
2023-04-24T03:44:31.150Z,95.93
2023-04-24T03:46:59.573Z,96.06
2023-04-24T03:49:28.026Z,96.10
2023-04-24T03:51:56.357Z,95.98
2023-04-24T03:54:24.955Z,95.97
2023-04-24T03:56:53.304Z,96.08
2023-04-24T03:59:21.668Z,96.09
2023-04-24T04:01:50.059Z,96.14
2023-04-24T04:04:18.720Z,96.15
2023-04-24T04:06:47.554Z,96.10
2023-04-24T04:09:16.246Z,95.97
2023-04-24T04:11:44.617Z,95.87
2023-04-24T04:14:13.418Z,95.69
2023-04-24T04:16:41.934Z,95.85
2023-04-24T04:19:10.527Z,95.78
2023-04-24T04:21:38.850Z,95.78
2023-04-24T04:24:08.268Z,95.68
2023-04-24T04:26:38.743Z,95.81
2023-04-24T04:29:07.744Z,95.93
2023-04-24T04:31:36.111Z,95.80
2023-04-24T04:34:04.843Z,95.80
2023-04-24T04:36:37.870Z,95.69
2023-04-24T04:39:06.633Z,95.85
2023-04-24T04:41:38.774Z,95.79
2023-04-24T04:44:07.515Z,95.87
2023-04-24T04:46:38.311Z,95.78
2023-04-24T04:49:07.025Z,95.76
2023-04-24T04:51:35.807Z,95.64
2023-04-24T04:54:04.259Z,95.50
2023-04-24T04:56:32.617Z,95.51
2023-04-24T04:59:00.983Z,95.37
2023-04-24T05:01:29.619Z,95.22
2023-04-24T05:03:58.431Z,95.11
2023-04-24T05:06:27.162Z,94.98
2023-04-24T05:08:58.309Z,94.88
2023-04-24T05:11:27.123Z,94.89
2023-04-24T05:13:55.923Z,94.56
2023-04-24T05:16:24.589Z,94.50
2023-04-24T05:18:52.983Z,94.46
2023-04-24T05:21:21.412Z,94.21
2023-04-24T05:23:49.734Z,94.08
2023-04-24T05:26:18.853Z,93.75
2023-04-24T05:28:47.316Z,93.60
2023-04-24T05:31:15.731Z,93.37
2023-04-24T05:33:44.225Z,93.16
2023-04-24T05:36:12.633Z,92.94
2023-04-24T05:38:43.339Z,92.78
2023-04-24T05:41:11.704Z,92.88
2023-04-24T05:43:40.917Z,92.56
2023-04-24T05:46:09.363Z,92.41
2023-04-24T05:48:38.016Z,92.33
2023-04-24T05:51:07.846Z,92.12
2023-04-24T05:53:37.936Z,92.34
2023-04-24T05:56:07.606Z,92.70
2023-04-24T05:58:38.901Z,92.50
2023-04-24T06:01:12.838Z,92.35
2023-04-24T06:03:42.804Z,92.08
2023-04-24T06:06:13.128Z,91.95
2023-04-24T06:08:45.192Z,91.48
2023-04-24T06:11:15.221Z,90.67
2023-04-24T06:13:44.752Z,90.20
2023-04-24T06:16:14.133Z,89.74
2023-04-24T06:18:43.565Z,89.60
2023-04-24T06:21:12.305Z,89.22
2023-04-24T06:23:42.055Z,88.89
2023-04-24T06:26:11.040Z,88.60
2023-04-24T06:28:39.896Z,88.29
2023-04-24T06:31:09.956Z,88.09
2023-04-24T06:33:38.651Z,88.10
2023-04-24T06:36:07.812Z,88.12
2023-04-24T06:38:37.091Z,87.90
2023-04-24T06:41:06.356Z,88.03
2023-04-24T06:43:34.801Z,87.88
2023-04-24T06:46:04.663Z,87.53
2023-04-24T06:48:33.065Z,87.26
2023-04-24T06:51:01.432Z,87.16
2023-04-24T06:53:30.648Z,87.23
2023-04-24T06:56:00.159Z,86.95
2023-04-24T06:58:29.689Z,87.07
2023-04-24T07:00:59.752Z,87.20
2023-04-24T07:03:28.359Z,87.01
2023-04-24T07:05:57.354Z,86.70
2023-04-24T07:11:32.601Z,86.15
2023-04-24T07:14:04.875Z,85.90
2023-04-24T07:31:45.042Z,84.20
2023-04-24T07:34:22.241Z,83.73
2023-04-24T07:36:54.951Z,83.46
2023-04-24T07:48:28.994Z,81.68
2023-04-24T07:50:57.589Z,81.25
2023-04-24T07:53:31.693Z,80.93
2023-04-24T07:56:00.184Z,80.74
2023-04-24T07:58:36.428Z,80.73
2023-04-24T08:01:20.454Z,80.81
2023-04-24T08:03:49.525Z,80.73
2023-04-24T08:06:18.149Z,80.93
2023-04-24T08:08:47.507Z,80.99
2023-04-24T08:11:16.462Z,81.31
2023-04-24T08:13:44.861Z,81.82
2023-04-24T08:16:29.104Z,82.06
2023-04-24T08:19:06.034Z,82.69
2023-04-24T08:21:45.504Z,83.36
2023-04-24T08:24:55.137Z,83.63
2023-04-24T08:27:55.650Z,84.26
2023-04-24T08:30:27.834Z,84.58
2023-04-24T08:32:58.040Z,84.66
2023-04-24T08:35:26.848Z,84.79
2023-04-24T08:37:55.276Z,84.41
2023-04-24T08:40:31.127Z,84.32
2023-04-24T08:43:01.984Z,84.13
2023-04-24T08:45:32.068Z,84.10
2023-04-24T08:48:01.406Z,83.13
2023-04-24T08:50:31.045Z,82.52
2023-04-24T08:53:00.627Z,81.26
2023-04-24T08:55:31.597Z,81.50
2023-04-24T08:58:03.492Z,80.97
2023-04-24T09:00:33.332Z,81.06
2023-04-24T09:03:08.123Z,81.12
2023-04-24T09:05:37.025Z,80.88
2023-04-24T09:08:07.283Z,80.78
2023-04-24T09:10:54.167Z,80.26
2023-04-24T09:13:27.901Z,79.98
2023-04-24T09:15:58.600Z,79.69
2023-04-24T09:18:36.860Z,79.40
2023-04-24T09:21:11.185Z,79.46
2023-04-24T09:23:40.097Z,79.48
2023-04-24T09:26:12.288Z,78.21
2023-04-24T09:28:41.952Z,76.73
2023-04-24T09:31:19.862Z,76.05
2023-04-24T09:34:07.190Z,75.58
2023-04-24T09:36:57.167Z,75.29
2023-04-24T09:39:25.675Z,75.29
2023-04-24T09:41:58.526Z,75.82
2023-04-24T09:44:29.496Z,74.80
2023-04-24T09:47:02.825Z,74.21
2023-04-24T09:49:37.686Z,73.64
2023-04-24T09:52:12.472Z,72.92
2023-04-24T09:54:41.224Z,72.77
2023-04-24T09:57:10.494Z,73.00
2023-04-24T09:59:48.531Z,72.97
2023-04-24T10:02:21.697Z,71.33
2023-04-24T10:05:00.721Z,70.41
2023-04-24T10:07:30.219Z,70.28
2023-04-24T10:09:59.737Z,69.95
2023-04-24T10:12:30.012Z,70.02
2023-04-24T10:14:59.408Z,69.74
2023-04-24T10:17:29.664Z,69.82
2023-04-24T10:19:59.439Z,69.74
2023-04-24T10:22:28.530Z,70.04
2023-04-24T10:24:58.140Z,70.60
2023-04-24T10:27:28.631Z,70.55
2023-04-24T10:30:00.311Z,70.95
2023-04-24T10:32:28.783Z,70.46
2023-04-24T10:34:57.808Z,70.32
2023-04-24T10:37:27.498Z,69.89
2023-04-24T10:39:57.135Z,69.31
2023-04-24T10:42:28.850Z,68.58
2023-04-24T10:44:59.242Z,68.03
2023-04-24T10:47:27.867Z,67.99
2023-04-24T10:50:01.615Z,67.98
2023-04-24T10:52:46.545Z,68.17
2023-04-24T10:55:18.031Z,68.38
2023-04-24T10:58:07.629Z,68.30
2023-04-24T11:00:42.129Z,68.54
2023-04-24T11:03:32.386Z,69.28
2023-04-24T11:06:08.050Z,68.85
2023-04-24T11:08:45.524Z,69.01
2023-04-24T11:11:18.052Z,68.86
2023-04-24T11:13:58.277Z,68.68
2023-04-24T11:16:55.415Z,68.68
2023-04-24T11:19:26.538Z,67.74
2023-04-24T11:22:20.845Z,66.25
2023-04-24T11:24:49.187Z,66.60
2023-04-24T11:27:23.060Z,65.84
2023-04-24T11:29:57.783Z,65.53
2023-04-24T11:32:44.272Z,66.08
2023-04-24T11:35:20.964Z,66.31
2023-04-24T11:40:24.859Z,64.22
2023-04-24T11:43:15.428Z,63.51
2023-04-24T11:45:51.743Z,63.71
2023-04-24T11:48:23.727Z,63.00
2023-04-24T11:50:53.200Z,62.48
2023-04-24T11:53:23.174Z,62.53
2023-04-24T11:55:51.646Z,62.35
2023-04-24T11:58:23.770Z,63.00
2023-04-24T12:01:02.184Z,63.08
2023-04-24T12:03:31.149Z,63.03
2023-04-24T12:06:12.685Z,63.06
2023-04-24T12:08:42.013Z,62.93
2023-04-24T12:11:11.039Z,63.38
2023-04-24T12:13:39.723Z,63.59
2023-04-24T12:16:10.213Z,63.77
2023-04-24T12:18:46.931Z,64.02
2023-04-24T12:21:23.885Z,64.03
2023-04-24T12:23:56.690Z,64.32
2023-04-24T12:26:25.588Z,64.14
2023-04-24T12:28:53.976Z,64.02
2023-04-24T12:31:22.568Z,64.42
2023-04-24T12:33:51.449Z,64.01
2023-04-24T12:36:22.321Z,64.14
2023-04-24T12:38:54.481Z,64.14
2023-04-24T12:41:22.881Z,64.50
2023-04-24T12:43:55.746Z,64.82
2023-04-24T12:46:25.048Z,65.25
2023-04-24T12:48:54.192Z,65.67
2023-04-24T12:51:25.463Z,65.99
2023-04-24T12:53:55.987Z,66.26
2023-04-24T12:56:25.959Z,66.64
2023-04-24T12:58:54.453Z,67.31
2023-04-24T13:01:22.958Z,67.78
2023-04-24T13:03:51.549Z,68.32
2023-04-24T13:06:20.043Z,68.55
2023-04-24T13:08:49.548Z,68.44
2023-04-24T13:11:17.925Z,68.54
2023-04-24T13:13:46.342Z,68.95
2023-04-24T13:16:14.757Z,69.22
2023-04-24T13:18:43.202Z,69.32
2023-04-24T13:21:11.692Z,69.65
2023-04-24T13:23:40.864Z,70.09
2023-04-24T13:26:10.687Z,70.22
2023-04-24T13:28:41.776Z,70.57
2023-04-24T13:31:11.958Z,70.70
2023-04-24T13:33:41.424Z,70.91
2023-04-24T13:36:15.459Z,71.37
2023-04-24T13:38:46.376Z,71.82
2023-04-24T13:41:14.778Z,72.14
2023-04-24T13:43:44.290Z,72.23
2023-04-24T13:46:13.209Z,72.62
2023-04-24T13:48:46.078Z,72.78
2023-04-24T13:51:23.064Z,73.33
2023-04-24T13:53:57.952Z,72.99
2023-04-24T13:56:29.639Z,72.80
2023-04-24T14:11:49.479Z,72.43
2023-04-24T14:14:24.578Z,72.78
2023-04-24T14:18:02.463Z,73.09
2023-04-24T14:20:33.942Z,73.28
2023-04-24T14:23:05.489Z,73.45
2023-04-24T14:25:44.808Z,73.60
2023-04-24T14:28:15.259Z,73.75
2023-04-24T14:30:45.133Z,73.64
2023-04-24T14:33:15.394Z,73.75
2023-04-24T14:37:37.216Z,73.88
2023-04-24T14:42:46.789Z,74.25
2023-04-24T14:45:17.486Z,74.34
2023-04-24T14:47:46.746Z,74.66
2023-04-24T14:50:18.646Z,74.93
2023-04-24T14:52:47.659Z,75.23
2023-04-24T14:55:16.178Z,75.46
2023-04-24T14:57:44.625Z,75.95
2023-04-24T15:00:13.967Z,75.93
2023-04-24T15:02:45.747Z,76.20
2023-04-24T15:05:17.515Z,76.57
2023-04-24T15:07:46.565Z,77.08
2023-04-24T15:10:15.362Z,77.48
2023-04-24T15:12:44.345Z,77.96
2023-04-24T15:15:12.909Z,78.47
2023-04-24T15:17:41.671Z,79.02
2023-04-24T15:20:10.724Z,79.30
2023-04-24T15:22:39.337Z,80.06
2023-04-24T15:25:08.633Z,80.15
2023-04-24T15:27:45.024Z,80.30
2023-04-24T15:30:14.585Z,80.59
2023-04-24T15:32:43.114Z,80.41
2023-04-24T15:35:11.577Z,80.63
2023-04-24T15:37:40.120Z,80.54
2023-04-24T15:40:09.579Z,80.59
2023-04-24T15:42:38.297Z,80.78
2023-04-24T15:45:07.460Z,81.16
2023-04-24T15:47:36.525Z,82.10
2023-04-24T15:50:06.421Z,82.54
2023-04-24T15:52:41.827Z,83.28
2023-04-24T15:55:11.002Z,83.49
2023-04-24T15:57:42.834Z,83.83
2023-04-24T16:00:12.230Z,84.15
2023-04-24T16:02:45.814Z,84.68
2023-04-24T16:05:15.211Z,84.98
2023-04-24T16:07:43.610Z,85.19
2023-04-24T16:10:12.120Z,85.44
2023-04-24T16:12:41.051Z,85.91
2023-04-24T16:15:10.784Z,86.04
2023-04-24T16:17:39.711Z,86.40
2023-04-24T16:20:08.601Z,86.75
2023-04-24T16:22:36.990Z,86.99
2023-04-24T16:25:09.740Z,87.21
2023-04-24T16:27:38.478Z,87.56
2023-04-24T16:30:08.484Z,87.68
2023-04-24T16:32:36.919Z,87.92
2023-04-24T16:35:06.855Z,88.10
2023-04-24T16:37:36.996Z,88.19
2023-04-24T16:40:11.291Z,88.48
2023-04-24T16:42:40.618Z,88.73
2023-04-24T16:45:10.603Z,88.79
2023-04-24T16:47:39.336Z,88.90
2023-04-24T16:50:11.255Z,88.95
2023-04-24T16:52:47.669Z,89.22
2023-04-24T16:55:16.200Z,89.37
2023-04-24T16:57:44.700Z,89.58
2023-04-24T17:00:14.102Z,89.77
2023-04-24T17:02:42.612Z,89.80
2023-04-24T17:05:11.113Z,89.82
2023-04-24T17:07:49.858Z,90.00
2023-04-24T17:10:18.600Z,90.24
2023-04-24T17:12:51.357Z,90.44
2023-04-24T17:15:19.812Z,90.45
2023-04-24T17:17:49.742Z,90.49
2023-04-24T17:20:22.672Z,90.71
2023-04-24T17:22:52.499Z,90.99
2023-04-24T17:25:21.647Z,90.98
2023-04-24T17:27:51.361Z,91.22
2023-04-24T17:30:20.062Z,91.40
2023-04-24T17:32:48.579Z,91.42
2023-04-24T17:35:17.967Z,91.50
2023-04-24T17:37:46.835Z,91.74
2023-04-24T17:40:16.375Z,92.01
2023-04-24T17:42:49.866Z,92.16
2023-04-24T17:45:19.193Z,92.13
2023-04-24T17:47:50.661Z,92.21
2023-04-24T17:50:21.200Z,92.29
2023-04-24T17:52:49.707Z,92.23
2023-04-24T17:55:18.168Z,92.33
2023-04-24T17:57:46.698Z,92.52
2023-04-24T18:00:16.284Z,92.79
2023-04-24T18:02:44.785Z,93.00
2023-04-24T18:05:13.293Z,93.09
2023-04-24T18:07:42.409Z,93.25
2023-04-24T18:10:11.260Z,93.37
2023-04-24T18:12:39.584Z,93.59
2023-04-24T18:15:14.239Z,93.73
2023-04-24T18:17:43.709Z,93.85
2023-04-24T18:20:14.841Z,94.16
2023-04-24T18:22:43.697Z,94.33
2023-04-24T18:25:14.383Z,94.58
2023-04-24T18:27:43.400Z,94.79
2023-04-24T18:30:14.709Z,94.87
2023-04-24T18:32:43.537Z,95.12
2023-04-24T18:35:12.257Z,95.17
2023-04-24T18:37:40.879Z,95.29
2023-04-24T18:40:10.156Z,95.34
2023-04-24T18:42:39.029Z,95.29
2023-04-24T18:45:09.038Z,95.43
2023-04-24T18:47:37.578Z,95.44
2023-04-24T18:50:06.973Z,95.45
2023-04-24T18:52:35.601Z,95.53
2023-04-24T18:55:06.965Z,95.56
2023-04-24T18:57:35.621Z,95.71
2023-04-24T19:00:04.918Z,95.91
2023-04-24T19:02:34.904Z,95.90
2023-04-24T19:05:03.845Z,95.80
2023-04-24T19:07:32.236Z,95.80
2023-04-24T19:10:01.192Z,95.91
2023-04-24T19:12:29.636Z,95.87
2023-04-24T19:14:58.743Z,95.81
2023-04-24T19:17:27.546Z,95.91
2023-04-24T19:19:56.383Z,95.86
2023-04-24T19:22:24.842Z,95.93
2023-04-24T19:24:53.930Z,95.96
2023-04-24T19:27:24.358Z,95.95
2023-04-24T19:29:52.840Z,95.92
2023-04-24T19:32:21.367Z,96.06
2023-04-24T19:34:49.844Z,96.00
2023-04-24T19:37:18.190Z,95.87
2023-04-24T19:39:46.569Z,95.96
2023-04-24T19:42:15.222Z,96.05
2023-04-24T19:44:43.552Z,96.10
2023-04-24T19:47:13.764Z,96.10
2023-04-24T19:57:59.284Z,96.06
2023-04-24T20:00:27.707Z,96.07
2023-04-24T20:02:56.209Z,95.95
2023-04-24T20:05:24.887Z,95.84
2023-04-24T20:07:53.386Z,95.76
2023-04-24T20:10:21.759Z,95.76
2023-04-24T20:12:50.816Z,95.67
2023-04-24T20:15:19.439Z,95.69
2023-04-24T20:17:47.792Z,95.64
2023-04-24T20:20:16.164Z,95.62
2023-04-24T20:22:44.495Z,95.60
2023-04-24T20:25:13.472Z,95.51
2023-04-24T20:27:42.015Z,95.69
2023-04-24T20:30:13.382Z,95.73
2023-04-24T20:32:43.581Z,95.67
2023-04-24T20:35:14.886Z,95.65
2023-04-24T20:37:43.259Z,95.84
2023-04-24T20:40:14.221Z,95.94
2023-04-24T20:42:42.810Z,95.84
2023-04-24T20:45:11.540Z,95.88
2023-04-24T20:47:39.940Z,95.93
2023-04-24T20:50:08.971Z,95.93
2023-04-24T20:52:37.282Z,95.77
2023-04-24T20:55:06.964Z,95.80
2023-04-24T20:57:35.501Z,95.89
2023-04-24T21:00:08.005Z,95.83
2023-04-24T21:02:36.457Z,95.96
2023-04-24T21:05:05.616Z,95.79
2023-04-24T21:07:34.045Z,95.89
2023-04-24T21:10:02.418Z,95.90
2023-04-24T21:12:30.843Z,95.79
2023-04-24T21:14:59.164Z,95.86
2023-04-24T21:17:27.590Z,95.71
2023-04-24T21:19:56.622Z,95.74
2023-04-24T21:22:25.071Z,95.58
2023-04-24T21:24:53.429Z,95.73
2023-04-24T21:27:21.910Z,95.64
2023-04-24T21:29:50.781Z,95.53
2023-04-24T21:32:19.364Z,95.53
2023-04-24T21:34:47.962Z,95.63
2023-04-24T21:37:16.398Z,95.60
2023-04-24T21:39:44.717Z,95.58
2023-04-24T21:42:13.213Z,95.72
2023-04-24T21:44:41.808Z,95.63
2023-04-24T21:47:10.312Z,95.62
2023-04-24T21:49:38.915Z,95.62
2023-04-24T21:52:07.911Z,95.66
2023-04-24T21:54:36.254Z,95.56
2023-04-24T21:57:04.770Z,95.41
2023-04-24T21:59:35.011Z,95.30
2023-04-24T22:02:03.818Z,95.16
2023-04-24T22:04:33.201Z,94.83
2023-04-24T22:07:01.924Z,94.70
2023-04-24T22:09:30.629Z,94.54
2023-04-24T22:11:59.066Z,94.07
2023-04-24T22:14:27.701Z,93.94
2023-04-24T22:16:57.975Z,93.54
2023-04-24T22:19:28.316Z,93.19
2023-04-24T22:21:57.361Z,92.83
2023-04-24T22:24:25.712Z,92.55
2023-04-24T22:26:54.012Z,92.26
2023-04-24T22:29:22.418Z,91.71
2023-04-24T22:31:50.902Z,91.29
2023-04-24T22:34:19.834Z,91.08
2023-04-24T22:36:48.175Z,90.85
2023-04-24T22:39:17.593Z,90.58
2023-04-24T22:41:46.163Z,90.39
2023-04-24T22:44:14.953Z,90.10
2023-04-24T22:46:43.428Z,89.88
2023-04-24T22:49:11.834Z,89.73
2023-04-24T22:51:41.831Z,89.52
2023-04-24T22:54:10.424Z,89.52
2023-04-24T22:56:38.897Z,89.51
2023-04-24T22:59:07.364Z,89.58
2023-04-24T23:01:35.907Z,89.41
2023-04-24T23:04:04.531Z,89.27
2023-04-24T23:06:33.247Z,89.28
2023-04-24T23:09:01.754Z,89.16
2023-04-24T23:11:30.077Z,89.02
2023-04-24T23:13:58.511Z,89.03
2023-04-24T23:16:26.942Z,88.97
2023-04-24T23:18:55.318Z,88.90
2023-04-24T23:21:23.700Z,88.98
2023-04-24T23:23:52.934Z,88.80
2023-04-24T23:26:21.360Z,88.71
2023-04-24T23:28:49.758Z,88.73
2023-04-24T23:31:18.186Z,88.58
2023-04-24T23:33:47.181Z,88.68
2023-04-24T23:36:16.184Z,88.63
2023-04-24T23:38:50.120Z,88.67
2023-04-24T23:41:19.934Z,88.64
2023-04-24T23:43:48.484Z,88.68
2023-04-24T23:46:17.197Z,88.63
2023-04-24T23:48:45.610Z,88.75
2023-04-24T23:51:14.866Z,88.73
2023-04-24T23:53:43.674Z,88.76
2023-04-24T23:56:12.011Z,88.77
2023-04-24T23:58:40.556Z,88.65
